sensor_id;sensor_type;location;lat;lon;timestamp;P1;durP1;ratioP1;P2;durP2;ratioP2
8632;SDS011;4354;49.832;10.746;2023-06-26T00:00:53;11.47;;;10.00;;
8632;SDS011;4354;49.832;10.746;2023-06-26T00:03:19;9.37;;;8.57;;
8632;SDS011;4354;49.832;10.746;2023-06-26T00:05:46;9.20;;;8.30;;
8632;SDS011;4354;49.832;10.746;2023-06-26T00:08:13;9.98;;;8.98;;
8632;SDS011;4354;49.832;10.746;2023-06-26T00:10:40;12.45;;;9.57;;
8632;SDS011;4354;49.832;10.746;2023-06-26T00:13:07;9.70;;;8.70;;
8632;SDS011;4354;49.832;10.746;2023-06-26T00:15:33;10.13;;;9.00;;
8632;SDS011;4354;49.832;10.746;2023-06-26T00:18:00;12.97;;;8.90;;
8632;SDS011;4354;49.832;10.746;2023-06-26T00:20:30;8.73;;;7.90;;
8632;SDS011;4354;49.832;10.746;2023-06-26T00:23:00;9.63;;;8.67;;
8632;SDS011;4354;49.832;10.746;2023-06-26T00:25:27;9.50;;;8.53;;
8632;SDS011;4354;49.832;10.746;2023-06-26T00:27:53;10.00;;;9.00;;
8632;SDS011;4354;49.832;10.746;2023-06-26T00:30:20;10.03;;;8.73;;
8632;SDS011;4354;49.832;10.746;2023-06-26T00:32:47;9.37;;;8.57;;
8632;SDS011;4354;49.832;10.746;2023-06-26T00:35:14;9.70;;;8.40;;
8632;SDS011;4354;49.832;10.746;2023-06-26T00:37:41;9.70;;;8.73;;
8632;SDS011;4354;49.832;10.746;2023-06-26T00:40:08;9.93;;;9.03;;
8632;SDS011;4354;49.832;10.746;2023-06-26T00:42:35;8.63;;;7.87;;
8632;SDS011;4354;49.832;10.746;2023-06-26T00:45:02;12.17;;;8.60;;
8632;SDS011;4354;49.832;10.746;2023-06-26T00:47:29;11.27;;;9.90;;
8632;SDS011;4354;49.832;10.746;2023-06-26T00:49:56;11.17;;;8.97;;
8632;SDS011;4354;49.832;10.746;2023-06-26T00:52:23;10.07;;;9.13;;
8632;SDS011;4354;49.832;10.746;2023-06-26T00:54:50;11.97;;;9.37;;
8632;SDS011;4354;49.832;10.746;2023-06-26T00:57:18;11.50;;;9.77;;
8632;SDS011;4354;49.832;10.746;2023-06-26T00:59:45;10.37;;;9.30;;
8632;SDS011;4354;49.832;10.746;2023-06-26T01:02:12;10.50;;;9.50;;
8632;SDS011;4354;49.832;10.746;2023-06-26T01:04:43;12.43;;;9.23;;
8632;SDS011;4354;49.832;10.746;2023-06-26T01:07:13;10.43;;;9.27;;
8632;SDS011;4354;49.832;10.746;2023-06-26T01:09:41;10.87;;;9.83;;
8632;SDS011;4354;49.832;10.746;2023-06-26T01:12:09;11.73;;;9.83;;
8632;SDS011;4354;49.832;10.746;2023-06-26T01:14:36;9.93;;;9.03;;
8632;SDS011;4354;49.832;10.746;2023-06-26T01:17:03;10.90;;;9.57;;
8632;SDS011;4354;49.832;10.746;2023-06-26T01:19:31;9.73;;;8.67;;
8632;SDS011;4354;49.832;10.746;2023-06-26T01:22:02;11.90;;;9.37;;
8632;SDS011;4354;49.832;10.746;2023-06-26T01:27:45;10.63;;;9.53;;
8632;SDS011;4354;49.832;10.746;2023-06-26T01:30:17;10.17;;;9.27;;
8632;SDS011;4354;49.832;10.746;2023-06-26T01:32:45;10.77;;;9.07;;
8632;SDS011;4354;49.832;10.746;2023-06-26T01:35:13;10.20;;;9.30;;
8632;SDS011;4354;49.832;10.746;2023-06-26T01:37:41;10.60;;;9.50;;
8632;SDS011;4354;49.832;10.746;2023-06-26T01:40:08;9.60;;;8.73;;
8632;SDS011;4354;49.832;10.746;2023-06-26T01:42:36;11.17;;;9.63;;
8632;SDS011;4354;49.832;10.746;2023-06-26T01:45:07;17.13;;;10.33;;
8632;SDS011;4354;49.832;10.746;2023-06-26T01:47:46;10.80;;;9.80;;
8632;SDS011;4354;49.832;10.746;2023-06-26T01:50:17;10.53;;;9.50;;
8632;SDS011;4354;49.832;10.746;2023-06-26T01:52:51;10.97;;;9.83;;
8632;SDS011;4354;49.832;10.746;2023-06-26T01:58:00;10.90;;;9.80;;
8632;SDS011;4354;49.832;10.746;2023-06-26T02:00:27;13.50;;;9.43;;
8632;SDS011;4354;49.832;10.746;2023-06-26T02:02:55;11.10;;;10.10;;
8632;SDS011;4354;49.832;10.746;2023-06-26T02:05:21;12.97;;;10.50;;
8632;SDS011;4354;49.832;10.746;2023-06-26T02:07:49;11.30;;;10.20;;
8632;SDS011;4354;49.832;10.746;2023-06-26T02:10:17;12.27;;;10.23;;
8632;SDS011;4354;49.832;10.746;2023-06-26T02:12:44;11.90;;;10.63;;
8632;SDS011;4354;49.832;10.746;2023-06-26T02:15:11;12.40;;;10.53;;
8632;SDS011;4354;49.832;10.746;2023-06-26T02:17:38;11.03;;;9.80;;
8632;SDS011;4354;49.832;10.746;2023-06-26T02:20:05;10.90;;;9.80;;
8632;SDS011;4354;49.832;10.746;2023-06-26T02:22:33;11.00;;;9.90;;
8632;SDS011;4354;49.832;10.746;2023-06-26T02:25:00;10.93;;;9.87;;
8632;SDS011;4354;49.832;10.746;2023-06-26T02:27:27;10.73;;;9.73;;
8632;SDS011;4354;49.832;10.746;2023-06-26T02:29:54;13.03;;;10.97;;
8632;SDS011;4354;49.832;10.746;2023-06-26T02:32:21;11.47;;;10.03;;
8632;SDS011;4354;49.832;10.746;2023-06-26T02:34:47;11.70;;;10.13;;
8632;SDS011;4354;49.832;10.746;2023-06-26T02:37:14;11.87;;;10.47;;
8632;SDS011;4354;49.832;10.746;2023-06-26T02:39:42;11.20;;;10.03;;
8632;SDS011;4354;49.832;10.746;2023-06-26T02:42:09;11.60;;;10.40;;
8632;SDS011;4354;49.832;10.746;2023-06-26T02:44:36;10.13;;;9.13;;
8632;SDS011;4354;49.832;10.746;2023-06-26T02:47:02;13.07;;;10.10;;
8632;SDS011;4354;49.832;10.746;2023-06-26T02:49:29;10.77;;;9.67;;
8632;SDS011;4354;49.832;10.746;2023-06-26T02:51:56;11.97;;;9.10;;
8632;SDS011;4354;49.832;10.746;2023-06-26T02:54:23;11.13;;;9.40;;
8632;SDS011;4354;49.832;10.746;2023-06-26T02:56:50;10.43;;;9.33;;
8632;SDS011;4354;49.832;10.746;2023-06-26T02:59:16;9.47;;;8.47;;
8632;SDS011;4354;49.832;10.746;2023-06-26T03:01:44;10.03;;;9.13;;
8632;SDS011;4354;49.832;10.746;2023-06-26T03:04:10;9.93;;;9.00;;
8632;SDS011;4354;49.832;10.746;2023-06-26T03:06:37;9.97;;;9.07;;
8632;SDS011;4354;49.832;10.746;2023-06-26T03:09:04;10.30;;;8.80;;
8632;SDS011;4354;49.832;10.746;2023-06-26T03:11:31;9.77;;;8.77;;
8632;SDS011;4354;49.832;10.746;2023-06-26T03:13:58;11.20;;;9.03;;
8632;SDS011;4354;49.832;10.746;2023-06-26T03:16:24;20.43;;;9.67;;
8632;SDS011;4354;49.832;10.746;2023-06-26T03:18:51;11.10;;;10.00;;
8632;SDS011;4354;49.832;10.746;2023-06-26T03:21:18;10.87;;;9.63;;
8632;SDS011;4354;49.832;10.746;2023-06-26T03:23:45;12.20;;;8.87;;
8632;SDS011;4354;49.832;10.746;2023-06-26T03:26:12;10.67;;;9.47;;
8632;SDS011;4354;49.832;10.746;2023-06-26T03:28:40;12.40;;;10.20;;
8632;SDS011;4354;49.832;10.746;2023-06-26T03:31:08;12.03;;;9.27;;
8632;SDS011;4354;49.832;10.746;2023-06-26T03:33:35;10.43;;;9.43;;
8632;SDS011;4354;49.832;10.746;2023-06-26T03:36:03;12.93;;;10.60;;
8632;SDS011;4354;49.832;10.746;2023-06-26T03:38:30;16.30;;;9.63;;
8632;SDS011;4354;49.832;10.746;2023-06-26T03:40:57;11.53;;;9.40;;
8632;SDS011;4354;49.832;10.746;2023-06-26T03:43:23;12.30;;;9.40;;
8632;SDS011;4354;49.832;10.746;2023-06-26T03:45:50;13.77;;;9.27;;
8632;SDS011;4354;49.832;10.746;2023-06-26T03:48:17;11.83;;;9.63;;
8632;SDS011;4354;49.832;10.746;2023-06-26T03:50:44;17.13;;;10.27;;
8632;SDS011;4354;49.832;10.746;2023-06-26T03:53:11;11.97;;;10.77;;
8632;SDS011;4354;49.832;10.746;2023-06-26T03:55:38;13.57;;;11.43;;
8632;SDS011;4354;49.832;10.746;2023-06-26T03:58:06;11.97;;;10.47;;
8632;SDS011;4354;49.832;10.746;2023-06-26T04:00:33;14.20;;;10.73;;
8632;SDS011;4354;49.832;10.746;2023-06-26T04:02:59;12.30;;;9.90;;
8632;SDS011;4354;49.832;10.746;2023-06-26T04:05:26;13.90;;;11.30;;
8632;SDS011;4354;49.832;10.746;2023-06-26T04:07:53;13.80;;;11.43;;
8632;SDS011;4354;49.832;10.746;2023-06-26T04:10:20;11.87;;;10.63;;
8632;SDS011;4354;49.832;10.746;2023-06-26T04:12:47;14.17;;;10.87;;
8632;SDS011;4354;49.832;10.746;2023-06-26T04:15:14;13.90;;;11.23;;
8632;SDS011;4354;49.832;10.746;2023-06-26T04:17:41;11.80;;;10.60;;
8632;SDS011;4354;49.832;10.746;2023-06-26T04:20:08;12.87;;;10.87;;
8632;SDS011;4354;49.832;10.746;2023-06-26T04:22:35;12.60;;;11.27;;
8632;SDS011;4354;49.832;10.746;2023-06-26T04:25:02;16.30;;;11.20;;
8632;SDS011;4354;49.832;10.746;2023-06-26T04:27:29;12.17;;;10.97;;
8632;SDS011;4354;49.832;10.746;2023-06-26T04:29:56;13.43;;;11.03;;
8632;SDS011;4354;49.832;10.746;2023-06-26T04:32:23;13.90;;;11.60;;
8632;SDS011;4354;49.832;10.746;2023-06-26T04:34:50;13.27;;;10.70;;
8632;SDS011;4354;49.832;10.746;2023-06-26T04:37:17;12.57;;;10.83;;
8632;SDS011;4354;49.832;10.746;2023-06-26T04:39:44;11.97;;;10.87;;
8632;SDS011;4354;49.832;10.746;2023-06-26T04:42:10;11.90;;;10.80;;
8632;SDS011;4354;49.832;10.746;2023-06-26T04:44:38;12.67;;;11.43;;
8632;SDS011;4354;49.832;10.746;2023-06-26T04:47:07;13.00;;;11.70;;
8632;SDS011;4354;49.832;10.746;2023-06-26T04:49:34;11.93;;;10.60;;
8632;SDS011;4354;49.832;10.746;2023-06-26T04:52:04;14.43;;;11.80;;
8632;SDS011;4354;49.832;10.746;2023-06-26T04:54:31;13.77;;;10.53;;
8632;SDS011;4354;49.832;10.746;2023-06-26T04:56:58;11.27;;;10.27;;
8632;SDS011;4354;49.832;10.746;2023-06-26T04:59:26;11.80;;;10.60;;
8632;SDS011;4354;49.832;10.746;2023-06-26T05:01:52;12.57;;;10.67;;
8632;SDS011;4354;49.832;10.746;2023-06-26T05:04:19;12.37;;;11.17;;
8632;SDS011;4354;49.832;10.746;2023-06-26T05:06:46;12.27;;;10.23;;
8632;SDS011;4354;49.832;10.746;2023-06-26T05:09:13;11.20;;;10.20;;
8632;SDS011;4354;49.832;10.746;2023-06-26T05:11:40;13.50;;;11.57;;
8632;SDS011;4354;49.832;10.746;2023-06-26T05:14:07;10.87;;;9.87;;
8632;SDS011;4354;49.832;10.746;2023-06-26T05:16:35;11.60;;;10.50;;
8632;SDS011;4354;49.832;10.746;2023-06-26T05:19:02;11.20;;;10.00;;
8632;SDS011;4354;49.832;10.746;2023-06-26T05:21:29;11.52;;;10.43;;
8632;SDS011;4354;49.832;10.746;2023-06-26T05:23:56;12.27;;;11.07;;
8632;SDS011;4354;49.832;10.746;2023-06-26T05:26:25;12.63;;;11.33;;
8632;SDS011;4354;49.832;10.746;2023-06-26T05:31:31;15.25;;;10.57;;
8632;SDS011;4354;49.832;10.746;2023-06-26T05:34:02;15.00;;;11.93;;
8632;SDS011;4354;49.832;10.746;2023-06-26T05:36:30;13.40;;;11.25;;
8632;SDS011;4354;49.832;10.746;2023-06-26T05:38:59;12.10;;;10.90;;
8632;SDS011;4354;49.832;10.746;2023-06-26T05:41:27;11.02;;;9.88;;
8632;SDS011;4354;49.832;10.746;2023-06-26T05:43:54;13.75;;;11.30;;
8632;SDS011;4354;49.832;10.746;2023-06-26T05:46:21;12.50;;;11.20;;
8632;SDS011;4354;49.832;10.746;2023-06-26T05:48:48;11.13;;;9.77;;
8632;SDS011;4354;49.832;10.746;2023-06-26T05:51:15;11.98;;;10.77;;
8632;SDS011;4354;49.832;10.746;2023-06-26T05:53:42;10.60;;;9.25;;
8632;SDS011;4354;49.832;10.746;2023-06-26T05:56:10;10.85;;;9.70;;
8632;SDS011;4354;49.832;10.746;2023-06-26T05:58:37;9.57;;;8.48;;
8632;SDS011;4354;49.832;10.746;2023-06-26T06:01:04;9.05;;;8.15;;
8632;SDS011;4354;49.832;10.746;2023-06-26T06:03:31;9.35;;;8.38;;
8632;SDS011;4354;49.832;10.746;2023-06-26T06:05:58;11.00;;;9.88;;
8632;SDS011;4354;49.832;10.746;2023-06-26T06:08:25;8.55;;;7.75;;
8632;SDS011;4354;49.832;10.746;2023-06-26T06:10:52;9.85;;;8.85;;
8632;SDS011;4354;49.832;10.746;2023-06-26T06:13:19;8.23;;;7.32;;
8632;SDS011;4354;49.832;10.746;2023-06-26T06:15:46;8.60;;;7.88;;
8632;SDS011;4354;49.832;10.746;2023-06-26T06:18:13;8.68;;;7.78;;
8632;SDS011;4354;49.832;10.746;2023-06-26T06:20:40;9.20;;;8.40;;
8632;SDS011;4354;49.832;10.746;2023-06-26T06:23:07;9.23;;;7.57;;
8632;SDS011;4354;49.832;10.746;2023-06-26T06:25:34;9.30;;;8.35;;
8632;SDS011;4354;49.832;10.746;2023-06-26T06:28:01;13.38;;;8.98;;
8632;SDS011;4354;49.832;10.746;2023-06-26T06:30:30;9.38;;;8.57;;
8632;SDS011;4354;49.832;10.746;2023-06-26T06:33:10;9.32;;;8.52;;
8632;SDS011;4354;49.832;10.746;2023-06-26T06:35:37;8.73;;;8.02;;
8632;SDS011;4354;49.832;10.746;2023-06-26T06:38:04;9.15;;;8.35;;
8632;SDS011;4354;49.832;10.746;2023-06-26T06:40:31;8.73;;;8.02;;
8632;SDS011;4354;49.832;10.746;2023-06-26T06:42:58;9.02;;;8.07;;
8632;SDS011;4354;49.832;10.746;2023-06-26T06:45:25;9.32;;;8.52;;
8632;SDS011;4354;49.832;10.746;2023-06-26T06:47:52;8.57;;;7.88;;
8632;SDS011;4354;49.832;10.746;2023-06-26T06:50:19;8.13;;;7.53;;
8632;SDS011;4354;49.832;10.746;2023-06-26T06:52:45;8.48;;;7.85;;
8632;SDS011;4354;49.832;10.746;2023-06-26T06:55:12;8.38;;;7.72;;
8632;SDS011;4354;49.832;10.746;2023-06-26T06:57:39;9.15;;;8.25;;
8632;SDS011;4354;49.832;10.746;2023-06-26T07:00:07;9.70;;;8.70;;
8632;SDS011;4354;49.832;10.746;2023-06-26T07:02:36;9.80;;;8.88;;
8632;SDS011;4354;49.832;10.746;2023-06-26T07:05:04;8.45;;;7.70;;
8632;SDS011;4354;49.832;10.746;2023-06-26T07:07:32;9.38;;;8.30;;
8632;SDS011;4354;49.832;10.746;2023-06-26T07:10:01;9.80;;;8.80;;
8632;SDS011;4354;49.832;10.746;2023-06-26T07:12:30;10.10;;;9.10;;
8632;SDS011;4354;49.832;10.746;2023-06-26T07:15:00;9.13;;;8.32;;
8632;SDS011;4354;49.832;10.746;2023-06-26T07:17:29;8.38;;;7.63;;
8632;SDS011;4354;49.832;10.746;2023-06-26T07:19:56;8.80;;;8.00;;
8632;SDS011;4354;49.832;10.746;2023-06-26T07:22:23;8.55;;;7.75;;
8632;SDS011;4354;49.832;10.746;2023-06-26T07:37:07;8.60;;;7.60;;
8632;SDS011;4354;49.832;10.746;2023-06-26T07:42:01;8.60;;;7.95;;
8632;SDS011;4354;49.832;10.746;2023-06-26T07:44:28;8.70;;;8.10;;
8632;SDS011;4354;49.832;10.746;2023-06-26T07:46:55;11.23;;;7.63;;
8632;SDS011;4354;49.832;10.746;2023-06-26T07:49:22;12.50;;;7.30;;
8632;SDS011;4354;49.832;10.746;2023-06-26T07:51:48;7.68;;;6.97;;
8632;SDS011;4354;49.832;10.746;2023-06-26T07:54:15;8.55;;;7.47;;
8632;SDS011;4354;49.832;10.746;2023-06-26T07:57:01;7.85;;;7.22;;
8632;SDS011;4354;49.832;10.746;2023-06-26T07:59:30;8.10;;;7.38;;
8632;SDS011;4354;49.832;10.746;2023-06-26T08:01:57;7.82;;;7.22;;
8632;SDS011;4354;49.832;10.746;2023-06-26T08:04:26;7.88;;;7.18;;
8632;SDS011;4354;49.832;10.746;2023-06-26T08:06:57;8.13;;;7.32;;
8632;SDS011;4354;49.832;10.746;2023-06-26T08:09:25;8.48;;;7.75;;
8632;SDS011;4354;49.832;10.746;2023-06-26T08:11:55;8.50;;;7.90;;
8632;SDS011;4354;49.832;10.746;2023-06-26T08:14:22;7.32;;;6.82;;
8632;SDS011;4354;49.832;10.746;2023-06-26T08:16:50;8.43;;;7.68;;
8632;SDS011;4354;49.832;10.746;2023-06-26T08:19:17;8.65;;;7.95;;
8632;SDS011;4354;49.832;10.746;2023-06-26T08:21:44;8.10;;;7.50;;
8632;SDS011;4354;49.832;10.746;2023-06-26T08:24:12;8.52;;;7.93;;
8632;SDS011;4354;49.832;10.746;2023-06-26T08:26:39;8.45;;;7.60;;
8632;SDS011;4354;49.832;10.746;2023-06-26T08:29:06;8.48;;;7.65;;
8632;SDS011;4354;49.832;10.746;2023-06-26T08:31:38;8.70;;;7.80;;
8632;SDS011;4354;49.832;10.746;2023-06-26T08:34:07;8.60;;;7.75;;
8632;SDS011;4354;49.832;10.746;2023-06-26T08:36:34;7.72;;;7.03;;
8632;SDS011;4354;49.832;10.746;2023-06-26T08:39:02;8.63;;;7.65;;
8632;SDS011;4354;49.832;10.746;2023-06-26T08:41:31;8.13;;;7.38;;
8632;SDS011;4354;49.832;10.746;2023-06-26T08:43:58;9.10;;;8.18;;
8632;SDS011;4354;49.832;10.746;2023-06-26T08:46:25;9.40;;;8.23;;
8632;SDS011;4354;49.832;10.746;2023-06-26T08:48:55;8.05;;;7.35;;
8632;SDS011;4354;49.832;10.746;2023-06-26T08:51:24;8.43;;;7.80;;
8632;SDS011;4354;49.832;10.746;2023-06-26T08:53:58;8.25;;;7.55;;
8632;SDS011;4354;49.832;10.746;2023-06-26T08:56:32;8.35;;;7.55;;
8632;SDS011;4354;49.832;10.746;2023-06-26T08:59:02;8.25;;;7.38;;
8632;SDS011;4354;49.832;10.746;2023-06-26T09:01:30;9.02;;;8.23;;
8632;SDS011;4354;49.832;10.746;2023-06-26T09:03:57;8.73;;;8.02;;
8632;SDS011;4354;49.832;10.746;2023-06-26T09:06:25;8.40;;;7.57;;
8632;SDS011;4354;49.832;10.746;2023-06-26T09:08:52;8.55;;;7.78;;
8632;SDS011;4354;49.832;10.746;2023-06-26T09:11:19;9.00;;;8.20;;
8632;SDS011;4354;49.832;10.746;2023-06-26T09:13:46;7.93;;;7.32;;
8632;SDS011;4354;49.832;10.746;2023-06-26T09:16:14;8.40;;;7.60;;
8632;SDS011;4354;49.832;10.746;2023-06-26T09:18:41;8.80;;;8.10;;
8632;SDS011;4354;49.832;10.746;2023-06-26T09:21:11;8.45;;;7.75;;
8632;SDS011;4354;49.832;10.746;2023-06-26T09:23:42;8.65;;;7.88;;
8632;SDS011;4354;49.832;10.746;2023-06-26T09:26:09;8.95;;;8.23;;
8632;SDS011;4354;49.832;10.746;2023-06-26T09:28:38;8.95;;;8.15;;
8632;SDS011;4354;49.832;10.746;2023-06-26T09:31:06;8.40;;;7.70;;
8632;SDS011;4354;49.832;10.746;2023-06-26T09:33:35;9.38;;;8.57;;
8632;SDS011;4354;49.832;10.746;2023-06-26T09:36:06;9.38;;;7.82;;
8632;SDS011;4354;49.832;10.746;2023-06-26T09:38:35;8.93;;;7.85;;
8632;SDS011;4354;49.832;10.746;2023-06-26T09:41:03;8.65;;;7.95;;
8632;SDS011;4354;49.832;10.746;2023-06-26T09:43:30;8.93;;;8.18;;
8632;SDS011;4354;49.832;10.746;2023-06-26T09:45:58;8.13;;;7.50;;
8632;SDS011;4354;49.832;10.746;2023-06-26T09:48:27;8.32;;;7.68;;
8632;SDS011;4354;49.832;10.746;2023-06-26T09:50:55;8.10;;;7.47;;
8632;SDS011;4354;49.832;10.746;2023-06-26T09:53:38;8.27;;;7.68;;
8632;SDS011;4354;49.832;10.746;2023-06-26T09:56:06;8.15;;;7.55;;
8632;SDS011;4354;49.832;10.746;2023-06-26T09:58:33;8.15;;;7.55;;
8632;SDS011;4354;49.832;10.746;2023-06-26T10:01:02;7.43;;;6.93;;
8632;SDS011;4354;49.832;10.746;2023-06-26T10:03:29;7.80;;;7.15;;
8632;SDS011;4354;49.832;10.746;2023-06-26T10:05:56;7.63;;;6.82;;
8632;SDS011;4354;49.832;10.746;2023-06-26T10:08:26;7.47;;;6.97;;
8632;SDS011;4354;49.832;10.746;2023-06-26T10:10:53;7.25;;;6.75;;
8632;SDS011;4354;49.832;10.746;2023-06-26T10:13:22;7.80;;;7.10;;
8632;SDS011;4354;49.832;10.746;2023-06-26T10:16:03;7.50;;;6.72;;
8632;SDS011;4354;49.832;10.746;2023-06-26T10:18:35;7.65;;;6.95;;
8632;SDS011;4354;49.832;10.746;2023-06-26T10:21:05;10.27;;;7.25;;
8632;SDS011;4354;49.832;10.746;2023-06-26T10:23:33;7.43;;;6.82;;
8632;SDS011;4354;49.832;10.746;2023-06-26T10:26:02;8.70;;;6.63;;
8632;SDS011;4354;49.832;10.746;2023-06-26T10:28:30;7.43;;;6.78;;
8632;SDS011;4354;49.832;10.746;2023-06-26T10:31:00;7.05;;;6.55;;
8632;SDS011;4354;49.832;10.746;2023-06-26T10:33:29;8.00;;;6.80;;
8632;SDS011;4354;49.832;10.746;2023-06-26T10:36:16;7.25;;;6.55;;
8632;SDS011;4354;49.832;10.746;2023-06-26T10:38:58;6.90;;;6.35;;
8632;SDS011;4354;49.832;10.746;2023-06-26T10:41:38;6.70;;;6.10;;
8632;SDS011;4354;49.832;10.746;2023-06-26T10:44:28;6.60;;;6.10;;
8632;SDS011;4354;49.832;10.746;2023-06-26T10:47:10;7.13;;;5.70;;
8632;SDS011;4354;49.832;10.746;2023-06-26T10:49:38;6.45;;;5.63;;
8632;SDS011;4354;49.832;10.746;2023-06-26T10:52:05;6.20;;;5.60;;
8632;SDS011;4354;49.832;10.746;2023-06-26T10:54:32;6.47;;;6.00;;
8632;SDS011;4354;49.832;10.746;2023-06-26T10:56:59;6.93;;;6.10;;
8632;SDS011;4354;49.832;10.746;2023-06-26T10:59:30;5.93;;;5.53;;
8632;SDS011;4354;49.832;10.746;2023-06-26T11:01:58;5.93;;;5.30;;
8632;SDS011;4354;49.832;10.746;2023-06-26T11:07:25;6.40;;;6.00;;
8632;SDS011;4354;49.832;10.746;2023-06-26T11:10:05;7.05;;;5.47;;
8632;SDS011;4354;49.832;10.746;2023-06-26T11:12:39;6.20;;;5.70;;
8632;SDS011;4354;49.832;10.746;2023-06-26T11:15:11;6.00;;;5.60;;
8632;SDS011;4354;49.832;10.746;2023-06-26T11:17:40;5.93;;;5.45;;
8632;SDS011;4354;49.832;10.746;2023-06-26T11:20:08;6.40;;;6.00;;
8632;SDS011;4354;49.832;10.746;2023-06-26T11:22:37;7.05;;;6.50;;
8632;SDS011;4354;49.832;10.746;2023-06-26T11:25:05;7.10;;;6.07;;
8632;SDS011;4354;49.832;10.746;2023-06-26T11:27:42;6.50;;;6.00;;
8632;SDS011;4354;49.832;10.746;2023-06-26T11:30:11;6.30;;;5.80;;
8632;SDS011;4354;49.832;10.746;2023-06-26T11:32:48;6.25;;;5.75;;
8632;SDS011;4354;49.832;10.746;2023-06-26T11:35:33;6.35;;;5.78;;
8632;SDS011;4354;49.832;10.746;2023-06-26T11:38:01;6.30;;;5.90;;
8632;SDS011;4354;49.832;10.746;2023-06-26T11:40:36;6.50;;;5.90;;
8632;SDS011;4354;49.832;10.746;2023-06-26T11:43:03;6.53;;;5.97;;
8632;SDS011;4354;49.832;10.746;2023-06-26T11:45:31;5.72;;;5.20;;
8632;SDS011;4354;49.832;10.746;2023-06-26T11:47:58;6.60;;;6.07;;
8632;SDS011;4354;49.832;10.746;2023-06-26T11:50:27;6.05;;;5.50;;
8632;SDS011;4354;49.832;10.746;2023-06-26T11:52:57;6.97;;;6.40;;
8632;SDS011;4354;49.832;10.746;2023-06-26T11:55:26;6.10;;;5.45;;
8632;SDS011;4354;49.832;10.746;2023-06-26T11:57:53;6.32;;;5.82;;
8632;SDS011;4354;49.832;10.746;2023-06-26T12:00:21;6.18;;;5.63;;
8632;SDS011;4354;49.832;10.746;2023-06-26T12:02:49;6.65;;;5.88;;
8632;SDS011;4354;49.832;10.746;2023-06-26T12:05:18;7.07;;;5.78;;
8632;SDS011;4354;49.832;10.746;2023-06-26T12:07:47;6.35;;;5.63;;
8632;SDS011;4354;49.832;10.746;2023-06-26T12:10:15;6.15;;;5.60;;
8632;SDS011;4354;49.832;10.746;2023-06-26T12:12:43;6.47;;;5.88;;
8632;SDS011;4354;49.832;10.746;2023-06-26T12:15:13;12.27;;;6.55;;
8632;SDS011;4354;49.832;10.746;2023-06-26T12:17:41;15.57;;;6.40;;
8632;SDS011;4354;49.832;10.746;2023-06-26T12:20:21;21.35;;;7.07;;
8632;SDS011;4354;49.832;10.746;2023-06-26T12:22:49;8.30;;;6.43;;
8632;SDS011;4354;49.832;10.746;2023-06-26T12:25:21;6.28;;;5.68;;
8632;SDS011;4354;49.832;10.746;2023-06-26T12:27:49;6.70;;;6.00;;
8632;SDS011;4354;49.832;10.746;2023-06-26T12:30:16;7.30;;;6.53;;
8632;SDS011;4354;49.832;10.746;2023-06-26T12:32:46;11.02;;;6.40;;
8632;SDS011;4354;49.832;10.746;2023-06-26T12:35:13;6.93;;;6.22;;
8632;SDS011;4354;49.832;10.746;2023-06-26T12:37:42;7.40;;;6.15;;
8632;SDS011;4354;49.832;10.746;2023-06-26T12:40:20;8.30;;;6.30;;
8632;SDS011;4354;49.832;10.746;2023-06-26T12:42:49;8.10;;;6.32;;
8632;SDS011;4354;49.832;10.746;2023-06-26T12:45:16;12.30;;;6.88;;
8632;SDS011;4354;49.832;10.746;2023-06-26T12:47:46;7.80;;;7.07;;
8632;SDS011;4354;49.832;10.746;2023-06-26T12:50:13;6.60;;;6.10;;
8632;SDS011;4354;49.832;10.746;2023-06-26T12:52:39;7.70;;;7.00;;
8632;SDS011;4354;49.832;10.746;2023-06-26T12:55:06;7.25;;;6.47;;
8632;SDS011;4354;49.832;10.746;2023-06-26T12:57:34;7.20;;;6.50;;
8632;SDS011;4354;49.832;10.746;2023-06-26T13:00:01;6.35;;;5.75;;
8632;SDS011;4354;49.832;10.746;2023-06-26T13:02:29;6.85;;;6.15;;
8632;SDS011;4354;49.832;10.746;2023-06-26T13:04:56;7.10;;;6.50;;
8632;SDS011;4354;49.832;10.746;2023-06-26T13:07:22;6.82;;;6.13;;
8632;SDS011;4354;49.832;10.746;2023-06-26T13:09:52;8.13;;;6.85;;
8632;SDS011;4354;49.832;10.746;2023-06-26T13:12:19;7.10;;;6.40;;
8632;SDS011;4354;49.832;10.746;2023-06-26T13:14:46;6.50;;;6.00;;
8632;SDS011;4354;49.832;10.746;2023-06-26T13:17:14;7.15;;;6.45;;
8632;SDS011;4354;49.832;10.746;2023-06-26T13:19:41;6.78;;;6.28;;
8632;SDS011;4354;49.832;10.746;2023-06-26T13:22:07;8.73;;;6.60;;
8632;SDS011;4354;49.832;10.746;2023-06-26T13:24:34;6.97;;;6.38;;
8632;SDS011;4354;49.832;10.746;2023-06-26T13:27:01;7.68;;;6.53;;
8632;SDS011;4354;49.832;10.746;2023-06-26T13:29:28;8.07;;;6.22;;
8632;SDS011;4354;49.832;10.746;2023-06-26T13:31:55;8.88;;;6.80;;
8632;SDS011;4354;49.832;10.746;2023-06-26T13:34:23;8.88;;;6.45;;
8632;SDS011;4354;49.832;10.746;2023-06-26T13:36:50;7.75;;;6.93;;
8632;SDS011;4354;49.832;10.746;2023-06-26T13:39:17;21.83;;;7.68;;
8632;SDS011;4354;49.832;10.746;2023-06-26T13:41:44;21.95;;;8.48;;
8632;SDS011;4354;49.832;10.746;2023-06-26T13:44:12;19.38;;;8.15;;
8632;SDS011;4354;49.832;10.746;2023-06-26T13:46:59;8.82;;;7.00;;
8632;SDS011;4354;49.832;10.746;2023-06-26T13:49:26;18.05;;;7.60;;
8632;SDS011;4354;49.832;10.746;2023-06-26T13:51:52;17.08;;;7.75;;
8632;SDS011;4354;49.832;10.746;2023-06-26T13:54:19;9.27;;;7.35;;
8632;SDS011;4354;49.832;10.746;2023-06-26T13:56:46;12.35;;;7.07;;
8632;SDS011;4354;49.832;10.746;2023-06-26T13:59:13;10.68;;;6.45;;
8632;SDS011;4354;49.832;10.746;2023-06-26T14:01:41;7.50;;;6.82;;
8632;SDS011;4354;49.832;10.746;2023-06-26T14:04:11;7.78;;;7.07;;
8632;SDS011;4354;49.832;10.746;2023-06-26T14:06:37;13.63;;;6.85;;
8632;SDS011;4354;49.832;10.746;2023-06-26T14:09:04;18.33;;;6.85;;
8632;SDS011;4354;49.832;10.746;2023-06-26T14:11:31;10.05;;;6.95;;
8632;SDS011;4354;49.832;10.746;2023-06-26T14:13:58;8.85;;;6.57;;
8632;SDS011;4354;49.832;10.746;2023-06-26T14:16:26;8.18;;;7.30;;
8632;SDS011;4354;49.832;10.746;2023-06-26T14:18:55;6.93;;;6.43;;
8632;SDS011;4354;49.832;10.746;2023-06-26T14:21:22;7.38;;;6.75;;
8632;SDS011;4354;49.832;10.746;2023-06-26T14:23:49;10.65;;;6.90;;
8632;SDS011;4354;49.832;10.746;2023-06-26T14:26:16;7.63;;;6.93;;
8632;SDS011;4354;49.832;10.746;2023-06-26T14:28:43;7.90;;;7.15;;
8632;SDS011;4354;49.832;10.746;2023-06-26T14:31:11;8.77;;;7.50;;
8632;SDS011;4354;49.832;10.746;2023-06-26T14:33:38;9.80;;;7.72;;
8632;SDS011;4354;49.832;10.746;2023-06-26T14:36:05;10.00;;;7.25;;
8632;SDS011;4354;49.832;10.746;2023-06-26T14:38:32;8.80;;;8.00;;
8632;SDS011;4354;49.832;10.746;2023-06-26T14:40:59;10.82;;;8.25;;
8632;SDS011;4354;49.832;10.746;2023-06-26T14:43:26;8.07;;;7.40;;
8632;SDS011;4354;49.832;10.746;2023-06-26T14:45:54;8.20;;;7.50;;
8632;SDS011;4354;49.832;10.746;2023-06-26T14:48:22;9.45;;;7.60;;
8632;SDS011;4354;49.832;10.746;2023-06-26T14:50:48;8.77;;;7.90;;
8632;SDS011;4354;49.832;10.746;2023-06-26T14:53:15;9.77;;;7.80;;
8632;SDS011;4354;49.832;10.746;2023-06-26T14:55:43;10.05;;;8.05;;
8632;SDS011;4354;49.832;10.746;2023-06-26T14:58:10;9.38;;;7.30;;
8632;SDS011;4354;49.832;10.746;2023-06-26T15:00:37;9.02;;;8.13;;
8632;SDS011;4354;49.832;10.746;2023-06-26T15:03:04;8.27;;;7.43;;
8632;SDS011;4354;49.832;10.746;2023-06-26T15:05:31;9.73;;;7.97;;
8632;SDS011;4354;49.832;10.746;2023-06-26T15:07:58;11.63;;;7.75;;
8632;SDS011;4354;49.832;10.746;2023-06-26T15:10:25;10.40;;;7.60;;
8632;SDS011;4354;49.832;10.746;2023-06-26T15:12:54;8.88;;;7.97;;
8632;SDS011;4354;49.832;10.746;2023-06-26T15:15:21;9.85;;;7.45;;
8632;SDS011;4354;49.832;10.746;2023-06-26T15:17:48;8.27;;;7.30;;
8632;SDS011;4354;49.832;10.746;2023-06-26T15:20:15;9.15;;;8.13;;
8632;SDS011;4354;49.832;10.746;2023-06-26T15:22:42;8.35;;;7.65;;
8632;SDS011;4354;49.832;10.746;2023-06-26T15:25:09;8.23;;;7.50;;